Aviation Digital Data Service (ADDS)

Output produced by METARs form (0554 UTC 16 February 2019)
found at http://www.aviationweather.gov/metar/data/
 
Forecast for: VOCI (COCHIN INTL , IN)
Text: TAF VOCI 160500Z 1606/1615 27010KT 5000 HZ FEW015 SCT020
Forecast period: 0600 to 1500 UTC 16 February 2019
Forecast type: FROM: standard forecast or significant change
Winds: from the W (270 degrees) at 12 MPH (10 knots; 5.1 m/s)
Visibility: 3 miles (5 km)
Ceiling: at least 12,000 feet AGL
Clouds: few clouds at 1500 feet AGL
scattered clouds at 2000 feet AGL
Weather: HZ  (haze)